createdAt,value
2018-08-24T00:02:05.553Z,20.50
2018-08-24T00:04:33.222Z,20.50
2018-08-24T00:07:03.849Z,20.50
2018-08-24T00:09:31.533Z,20.50
2018-08-24T00:11:59.259Z,20.50
2018-08-24T00:14:26.930Z,20.50
2018-08-24T00:16:54.933Z,20.50
2018-08-24T00:19:22.605Z,20.30
2018-08-24T00:21:50.665Z,20.10
2018-08-24T00:24:20.142Z,19.80
2018-08-24T00:26:47.905Z,19.50
2018-08-24T00:29:15.586Z,19.30
2018-08-24T00:31:43.385Z,19.20
2018-08-24T00:34:11.830Z,19.20
2018-08-24T00:36:39.542Z,19.10
2018-08-24T00:39:08.984Z,19.30
2018-08-24T00:41:36.930Z,19.20
2018-08-24T00:44:04.670Z,19.20
2018-08-24T00:46:32.422Z,19.20
2018-08-24T00:49:00.090Z,19.20
2018-08-24T00:51:28.319Z,19.20
2018-08-24T00:53:59.748Z,19.20
2018-08-24T00:56:27.460Z,19.10
2018-08-24T00:58:55.177Z,19.10
2018-08-24T01:01:23.226Z,19.10
2018-08-24T01:03:51.422Z,18.90
2018-08-24T01:06:23.542Z,18.60
2018-08-24T01:08:51.294Z,18.40
2018-08-24T01:11:19.082Z,18.30
2018-08-24T01:13:50.646Z,18.20
2018-08-24T01:16:24.445Z,18.30
2018-08-24T01:18:53.289Z,18.30
2018-08-24T01:21:21.022Z,18.30
2018-08-24T01:23:49.498Z,18.20
2018-08-24T01:26:21.314Z,17.80
2018-08-24T01:28:49.574Z,17.60
2018-08-24T01:31:17.897Z,17.60
2018-08-24T01:33:45.581Z,17.50
2018-08-24T01:36:13.281Z,17.50
2018-08-24T01:38:41.172Z,17.60
2018-08-24T01:41:08.859Z,17.70
2018-08-24T01:43:36.546Z,17.80
2018-08-24T01:46:18.741Z,17.80
2018-08-24T01:48:46.442Z,17.70
2018-08-24T01:51:14.123Z,17.80
2018-08-24T01:53:42.579Z,17.80
2018-08-24T01:56:10.342Z,17.90
2018-08-24T01:58:38.086Z,17.90
2018-08-24T02:01:05.889Z,18.00
2018-08-24T02:03:33.614Z,18.00
2018-08-24T02:06:06.205Z,18.00
2018-08-24T02:08:35.124Z,18.00
2018-08-24T02:11:07.406Z,18.00
2018-08-24T02:13:41.298Z,17.90
2018-08-24T02:16:09.134Z,17.80
2018-08-24T02:18:42.763Z,17.90
2018-08-24T02:21:17.274Z,17.90
2018-08-24T02:23:46.414Z,17.80
2018-08-24T02:26:14.088Z,17.80
2018-08-24T02:28:41.830Z,17.70
2018-08-24T02:31:09.544Z,17.70
2018-08-24T02:33:38.435Z,17.80
2018-08-24T02:36:08.046Z,17.80
2018-08-24T02:38:36.693Z,17.70
2018-08-24T02:41:04.445Z,17.70
2018-08-24T02:43:32.150Z,17.70
2018-08-24T02:45:59.810Z,17.70
2018-08-24T02:48:27.550Z,17.60
2018-08-24T02:50:56.783Z,17.50
2018-08-24T02:53:24.629Z,17.50
2018-08-24T02:55:52.638Z,17.50
2018-08-24T02:58:20.334Z,17.50
2018-08-24T03:00:48.026Z,17.50
2018-08-24T03:03:19.614Z,17.50
2018-08-24T03:05:47.330Z,17.40
2018-08-24T03:08:15.577Z,17.30
2018-08-24T03:10:44.031Z,17.30
2018-08-24T03:13:11.950Z,17.30
2018-08-24T03:15:39.729Z,17.20
2018-08-24T03:18:07.399Z,17.30
2018-08-24T03:20:35.401Z,17.30
2018-08-24T03:23:03.077Z,17.30
2018-08-24T03:25:30.817Z,17.20
2018-08-24T03:27:59.462Z,17.20
2018-08-24T03:30:27.138Z,17.20
2018-08-24T03:32:54.790Z,17.20
2018-08-24T03:35:22.614Z,17.10
2018-08-24T03:37:50.294Z,17.10
2018-08-24T03:40:18.002Z,17.10
2018-08-24T03:42:45.873Z,17.00
2018-08-24T03:45:13.758Z,17.10
2018-08-24T03:47:41.567Z,17.10
2018-08-24T03:50:09.292Z,17.00
2018-08-24T03:52:36.968Z,17.10
2018-08-24T03:55:04.975Z,17.00
2018-08-24T03:57:32.662Z,17.10
2018-08-24T04:00:09.915Z,17.00
2018-08-24T04:02:39.650Z,17.00
2018-08-24T04:05:07.414Z,17.00
2018-08-24T04:07:35.114Z,16.90
2018-08-24T04:10:02.894Z,16.90
2018-08-24T04:12:31.339Z,16.90
2018-08-24T04:14:59.038Z,16.80
2018-08-24T04:17:32.425Z,16.90
2018-08-24T04:20:00.615Z,16.80
2018-08-24T04:22:28.319Z,16.80
2018-08-24T04:24:56.054Z,16.90
2018-08-24T04:27:24.215Z,16.90
2018-08-24T04:29:51.919Z,16.80
2018-08-24T04:32:20.266Z,16.80
2018-08-24T04:34:48.166Z,16.80
2018-08-24T04:37:15.911Z,16.90
2018-08-24T04:39:43.744Z,16.90
2018-08-24T04:42:11.418Z,16.90
2018-08-24T04:44:39.084Z,17.00
2018-08-24T04:47:06.782Z,16.80
2018-08-24T04:49:34.530Z,16.90
2018-08-24T04:52:02.271Z,16.80
2018-08-24T04:54:30.034Z,16.90
2018-08-24T04:56:58.181Z,16.90
2018-08-24T04:59:25.902Z,16.90
2018-08-24T05:01:53.691Z,16.90
2018-08-24T05:04:21.742Z,17.00
2018-08-24T05:06:49.939Z,16.90
2018-08-24T05:09:17.613Z,16.90
2018-08-24T05:11:45.660Z,17.00
2018-08-24T05:14:14.661Z,17.00
2018-08-24T05:16:45.166Z,17.10
2018-08-24T05:19:15.958Z,17.10
2018-08-24T05:21:43.657Z,17.10
2018-08-24T05:24:11.314Z,17.10
2018-08-24T05:26:39.034Z,17.20
2018-08-24T05:29:06.697Z,17.20
2018-08-24T05:31:34.759Z,17.20
2018-08-24T05:34:03.347Z,17.30
2018-08-24T05:36:31.079Z,17.40
2018-08-24T05:38:59.751Z,17.40
2018-08-24T05:41:29.032Z,17.50
2018-08-24T05:43:57.323Z,17.60
2018-08-24T05:46:25.677Z,17.60
2018-08-24T05:48:53.381Z,17.60
2018-08-24T05:51:21.114Z,17.60
2018-08-24T05:53:48.803Z,17.60
2018-08-24T05:56:16.623Z,17.80
2018-08-24T05:58:44.356Z,17.80
2018-08-24T06:03:39.826Z,18.10
2018-08-24T06:06:08.278Z,18.10
2018-08-24T06:08:35.991Z,18.10
2018-08-24T06:11:03.870Z,18.00
2018-08-24T06:13:32.441Z,17.90
2018-08-24T06:16:00.170Z,17.90
2018-08-24T06:18:27.826Z,18.00
2018-08-24T06:20:57.387Z,18.00
2018-08-24T06:23:28.650Z,18.10
2018-08-24T06:25:56.434Z,18.10
2018-08-24T06:28:24.127Z,18.00
2018-08-24T06:30:52.117Z,17.90
2018-08-24T06:33:22.337Z,18.00
2018-08-24T06:35:51.289Z,18.00
2018-08-24T06:38:18.999Z,18.10
2018-08-24T06:40:46.665Z,18.10
2018-08-24T06:43:14.659Z,18.10
2018-08-24T06:45:43.121Z,18.00
2018-08-24T06:48:10.825Z,18.00
2018-08-24T06:50:38.614Z,18.00
2018-08-24T06:53:06.566Z,18.00
2018-08-24T06:55:34.125Z,18.00
2018-08-24T06:58:01.918Z,17.90
2018-08-24T07:00:29.613Z,17.90
2018-08-24T07:02:58.453Z,17.80
2018-08-24T07:05:26.547Z,17.80
2018-08-24T07:07:54.395Z,17.80
2018-08-24T07:10:22.129Z,17.80
2018-08-24T07:12:49.896Z,17.70
2018-08-24T07:15:17.705Z,17.80
2018-08-24T07:17:53.154Z,17.90
2018-08-24T07:20:21.837Z,17.90
2018-08-24T07:22:51.033Z,17.80
2018-08-24T07:25:19.251Z,17.90
2018-08-24T07:27:46.838Z,17.90
2018-08-24T07:30:14.554Z,18.00
2018-08-24T07:32:42.346Z,18.00
2018-08-24T07:35:10.052Z,18.00
2018-08-24T07:37:37.722Z,17.90
2018-08-24T07:40:05.725Z,17.80
2018-08-24T07:42:33.422Z,17.80
2018-08-24T07:45:01.174Z,18.00
2018-08-24T07:47:28.978Z,18.10
2018-08-24T07:49:58.564Z,18.10
2018-08-24T07:52:26.222Z,18.10
2018-08-24T07:54:54.134Z,18.00
2018-08-24T07:57:21.833Z,18.00
2018-08-24T07:59:49.590Z,18.00
2018-08-24T08:02:17.240Z,18.10
2018-08-24T08:04:46.853Z,18.10
2018-08-24T08:07:14.525Z,18.20
2018-08-24T08:09:42.258Z,18.20
2018-08-24T08:12:09.974Z,18.10
2018-08-24T08:14:42.203Z,18.10
2018-08-24T08:17:13.310Z,18.30
2018-08-24T08:19:41.071Z,18.20
2018-08-24T08:22:10.226Z,18.20
2018-08-24T08:24:37.968Z,18.20
2018-08-24T08:27:05.666Z,18.20
2018-08-24T08:29:39.266Z,18.30
2018-08-24T08:32:09.216Z,18.40
2018-08-24T08:34:43.057Z,18.50
2018-08-24T08:37:11.058Z,18.40
2018-08-24T08:39:39.438Z,18.50
2018-08-24T08:42:07.185Z,18.40
2018-08-24T08:44:34.906Z,18.40
2018-08-24T08:47:05.111Z,18.30
2018-08-24T08:49:33.545Z,18.30
2018-08-24T08:52:01.486Z,18.10
2018-08-24T08:54:29.181Z,18.00
2018-08-24T08:56:56.833Z,18.10
2018-08-24T08:59:25.351Z,18.10
2018-08-24T09:01:53.174Z,18.10
2018-08-24T09:04:20.929Z,18.30
2018-08-24T09:06:48.898Z,18.40
2018-08-24T09:09:21.445Z,18.40
2018-08-24T09:11:49.130Z,18.20
2018-08-24T09:14:16.774Z,18.20
2018-08-24T09:16:44.866Z,18.30
2018-08-24T09:19:18.110Z,18.30
2018-08-24T09:21:51.460Z,18.60
2018-08-24T09:24:24.874Z,19.00
2018-08-24T09:26:59.690Z,19.50
2018-08-24T09:29:28.162Z,19.50
2018-08-24T09:31:57.032Z,19.00
2018-08-24T09:34:26.677Z,19.20
2018-08-24T09:36:55.085Z,19.50
2018-08-24T09:39:24.627Z,19.50
2018-08-24T09:41:53.383Z,19.70
2018-08-24T09:44:21.093Z,19.80
2018-08-24T09:46:54.414Z,19.80
2018-08-24T09:49:36.313Z,19.70
2018-08-24T09:52:09.545Z,19.90
2018-08-24T09:54:37.199Z,19.70
2018-08-24T09:57:05.413Z,19.60
2018-08-24T09:59:33.166Z,19.60
2018-08-24T10:02:06.258Z,19.80
2018-08-24T10:04:39.406Z,20.00
2018-08-24T10:07:13.662Z,20.20
2018-08-24T10:09:41.297Z,20.40
2018-08-24T10:12:09.181Z,20.50
2018-08-24T10:14:36.841Z,20.60
2018-08-24T10:17:04.888Z,21.00
2018-08-24T10:19:32.653Z,20.90
2018-08-24T10:22:04.302Z,20.90
2018-08-24T10:24:32.631Z,20.60
2018-08-24T10:27:00.746Z,20.40
2018-08-24T10:29:28.529Z,20.30
2018-08-24T10:31:56.077Z,20.70
2018-08-24T10:34:23.706Z,20.90
2018-08-24T10:36:51.369Z,21.00
2018-08-24T10:39:19.003Z,20.80
2018-08-24T10:41:46.665Z,20.40
2018-08-24T10:44:14.321Z,20.10
2018-08-24T10:46:42.641Z,20.00
2018-08-24T10:49:10.277Z,20.30
2018-08-24T10:51:38.177Z,20.70
2018-08-24T10:54:05.899Z,21.00
2018-08-24T10:56:34.749Z,21.10
2018-08-24T10:59:02.381Z,21.20
2018-08-24T11:01:30.058Z,21.20
2018-08-24T11:03:57.777Z,21.30
2018-08-24T11:06:25.447Z,21.40
2018-08-24T11:08:54.165Z,21.60
2018-08-24T11:11:21.949Z,21.60
2018-08-24T11:13:49.614Z,21.40
2018-08-24T11:16:17.402Z,21.00
2018-08-24T11:18:45.086Z,20.80
2018-08-24T11:21:12.755Z,21.00
2018-08-24T11:23:40.413Z,21.20
2018-08-24T11:26:08.140Z,20.60
2018-08-24T11:28:36.431Z,20.30
2018-08-24T11:31:04.074Z,20.00
2018-08-24T11:33:31.753Z,20.10
2018-08-24T11:35:59.435Z,20.70
2018-08-24T11:38:27.133Z,21.10
2018-08-24T11:40:54.794Z,21.20
2018-08-24T11:43:22.870Z,21.50
2018-08-24T11:45:50.494Z,22.00
2018-08-24T11:48:18.178Z,22.20
2018-08-24T11:50:45.850Z,22.00
2018-08-24T11:53:13.533Z,22.20
2018-08-24T11:55:41.306Z,22.30
2018-08-24T11:58:09.891Z,22.30
2018-08-24T12:00:38.113Z,22.30
2018-08-24T12:03:05.834Z,22.50
2018-08-24T12:05:33.641Z,22.20
2018-08-24T12:08:01.390Z,22.00
2018-08-24T12:10:29.937Z,21.90
2018-08-24T12:12:58.046Z,21.50
2018-08-24T12:15:25.690Z,21.30
2018-08-24T12:17:53.891Z,21.40
2018-08-24T12:20:21.706Z,21.90
2018-08-24T12:22:49.790Z,22.10
2018-08-24T12:25:18.417Z,22.60
2018-08-24T12:27:46.174Z,22.70
2018-08-24T12:30:13.841Z,22.90
2018-08-24T12:32:42.902Z,22.70
2018-08-24T12:35:10.558Z,23.00
2018-08-24T12:37:44.321Z,22.90
2018-08-24T12:40:12.969Z,22.60
2018-08-24T12:42:40.704Z,22.60
2018-08-24T12:45:08.532Z,22.80
2018-08-24T12:47:36.786Z,22.50
2018-08-24T12:50:05.337Z,22.90
2018-08-24T12:52:33.035Z,23.30
2018-08-24T12:55:00.649Z,23.40
2018-08-24T12:57:29.278Z,23.10
2018-08-24T12:59:58.206Z,22.90
2018-08-24T13:02:26.061Z,23.00
2018-08-24T13:04:54.289Z,23.20
2018-08-24T13:07:22.150Z,23.40
2018-08-24T13:09:49.833Z,23.60
2018-08-24T13:12:18.112Z,23.00
2018-08-24T13:14:45.826Z,23.40
2018-08-24T13:17:13.513Z,23.30
2018-08-24T13:19:42.481Z,23.20
2018-08-24T13:22:10.719Z,23.20
2018-08-24T13:24:40.261Z,23.20
2018-08-24T13:27:08.162Z,23.10
2018-08-24T13:29:37.161Z,22.80
2018-08-24T13:32:04.982Z,22.80
2018-08-24T13:34:33.357Z,22.70
2018-08-24T13:37:02.135Z,22.80
2018-08-24T13:39:29.905Z,22.70
2018-08-24T13:41:57.606Z,22.80
2018-08-24T13:44:25.466Z,23.50
2018-08-24T13:46:53.614Z,23.70
2018-08-24T13:49:21.367Z,23.70
2018-08-24T13:51:52.621Z,23.50
2018-08-24T13:54:20.394Z,23.10
2018-08-24T13:56:48.117Z,22.90
2018-08-24T13:59:15.826Z,22.80
2018-08-24T14:01:43.566Z,22.70
2018-08-24T14:04:11.326Z,22.70
2018-08-24T14:06:39.828Z,22.50
2018-08-24T14:09:09.238Z,22.20
2018-08-24T14:11:37.246Z,22.00
2018-08-24T14:14:05.114Z,21.80
2018-08-24T14:16:33.238Z,21.50
2018-08-24T14:19:00.958Z,21.60
2018-08-24T14:21:29.376Z,21.70
2018-08-24T14:23:57.145Z,22.00
2018-08-24T14:26:25.018Z,22.10
2018-08-24T14:28:52.679Z,22.20
2018-08-24T14:31:20.527Z,21.90
2018-08-24T14:33:48.827Z,21.60
2018-08-24T14:36:19.306Z,21.40
2018-08-24T14:38:47.880Z,21.40
2018-08-24T14:41:15.543Z,21.50
2018-08-24T14:43:43.298Z,21.80
2018-08-24T14:46:11.054Z,22.20
2018-08-24T14:48:38.755Z,22.50
2018-08-24T14:51:06.445Z,22.80
2018-08-24T14:53:34.127Z,22.60
2018-08-24T14:56:01.815Z,22.70
2018-08-24T14:58:30.354Z,22.30
2018-08-24T15:00:58.021Z,22.20
2018-08-24T15:03:25.822Z,22.10
2018-08-24T15:05:53.523Z,21.90
2018-08-24T15:08:21.177Z,22.00
2018-08-24T15:10:48.884Z,22.20
2018-08-24T15:13:16.817Z,22.20
2018-08-24T15:15:44.582Z,22.10
2018-08-24T15:18:12.246Z,22.00
2018-08-24T15:20:39.970Z,21.90
2018-08-24T15:23:08.313Z,21.80
2018-08-24T15:25:36.257Z,21.70
2018-08-24T15:28:03.925Z,21.40
2018-08-24T15:30:31.591Z,21.50
2018-08-24T15:32:59.275Z,21.30
2018-08-24T15:35:27.010Z,21.30
2018-08-24T15:37:57.458Z,21.20
2018-08-24T15:40:25.796Z,21.10
2018-08-24T15:42:53.479Z,21.10
2018-08-24T15:45:21.148Z,21.10
2018-08-24T15:47:48.794Z,21.00
2018-08-24T15:50:16.517Z,20.90
2018-08-24T15:52:48.158Z,20.90
2018-08-24T15:55:16.473Z,20.90
2018-08-24T15:57:44.791Z,21.10
2018-08-24T16:00:12.502Z,21.10
2018-08-24T16:02:40.134Z,20.90
2018-08-24T16:05:08.373Z,20.90
2018-08-24T16:07:37.530Z,20.80
2018-08-24T16:10:06.358Z,20.80
2018-08-24T16:12:34.030Z,20.80
2018-08-24T16:15:02.013Z,20.70
2018-08-24T16:17:29.697Z,20.70
2018-08-24T16:19:57.401Z,20.60
2018-08-24T16:22:25.142Z,20.50
2018-08-24T16:24:52.777Z,20.60
2018-08-24T16:27:23.386Z,20.70
2018-08-24T16:29:52.545Z,20.70
2018-08-24T16:32:20.331Z,20.70
2018-08-24T16:34:47.973Z,20.60
2018-08-24T16:37:15.653Z,20.40
2018-08-24T16:39:43.302Z,20.40
2018-08-24T16:42:11.010Z,20.30
2018-08-24T16:44:38.729Z,20.20
2018-08-24T16:47:06.470Z,20.20
2018-08-24T16:49:34.254Z,20.40
2018-08-24T16:52:02.042Z,20.40
2018-08-24T16:54:29.870Z,20.30
2018-08-24T16:56:57.564Z,20.20
2018-08-24T16:59:25.402Z,20.20
2018-08-24T17:01:53.131Z,20.20
2018-08-24T17:04:21.354Z,20.10
2018-08-24T17:06:49.053Z,20.10
2018-08-24T17:09:20.018Z,20.00
2018-08-24T17:11:52.106Z,19.80
2018-08-24T17:14:23.412Z,19.70
2018-08-24T17:16:56.197Z,19.70
2018-08-24T17:19:27.994Z,19.70
2018-08-24T17:21:59.980Z,19.70
2018-08-24T17:24:31.868Z,19.80
2018-08-24T17:27:02.049Z,19.80
2018-08-24T17:29:35.097Z,19.80
2018-08-24T17:32:10.814Z,19.70
2018-08-24T17:34:41.123Z,19.60
2018-08-24T17:37:11.793Z,19.50
2018-08-24T17:39:43.506Z,19.50
2018-08-24T17:42:18.227Z,19.50
2018-08-24T17:44:50.048Z,19.60
2018-08-24T17:47:21.655Z,19.60
2018-08-24T17:49:53.789Z,19.60
2018-08-24T17:52:28.215Z,19.60
2018-08-24T17:55:00.753Z,19.50
2018-08-24T17:57:34.668Z,19.50
2018-08-24T18:00:06.219Z,19.50
2018-08-24T18:02:43.114Z,19.40
2018-08-24T18:05:14.883Z,19.50
2018-08-24T18:07:44.565Z,19.50
2018-08-24T18:10:12.269Z,19.40
2018-08-24T18:12:41.014Z,19.40
2018-08-24T18:15:08.814Z,19.40
2018-08-24T18:17:36.377Z,19.40
2018-08-24T18:20:04.102Z,19.40
2018-08-24T18:22:31.865Z,19.40
2018-08-24T18:24:59.778Z,19.30
2018-08-24T18:27:27.462Z,19.30
2018-08-24T18:29:55.226Z,19.30
2018-08-24T18:32:22.918Z,19.20
2018-08-24T18:34:52.836Z,19.10
2018-08-24T18:37:20.587Z,19.00
2018-08-24T18:39:48.229Z,19.00
2018-08-24T18:42:15.926Z,19.00
2018-08-24T18:44:43.642Z,19.00
2018-08-24T18:47:11.418Z,19.00
2018-08-24T18:49:39.090Z,19.00
2018-08-24T18:52:06.793Z,19.00
2018-08-24T18:54:36.423Z,19.00
2018-08-24T18:57:04.142Z,19.00
2018-08-24T18:59:31.810Z,19.00
2018-08-24T19:01:59.437Z,19.00
2018-08-24T19:04:27.081Z,18.90
2018-08-24T19:06:54.978Z,18.90
2018-08-24T19:09:22.885Z,18.90
2018-08-24T19:11:56.022Z,18.90
2018-08-24T19:14:23.666Z,18.80
2018-08-24T19:16:51.309Z,18.80
2018-08-24T19:19:24.626Z,18.80
2018-08-24T19:21:59.974Z,18.80
2018-08-24T19:24:28.539Z,18.80
2018-08-24T19:26:56.126Z,18.80
2018-08-24T19:29:29.378Z,18.70
2018-08-24T19:31:57.856Z,18.70
2018-08-24T19:34:25.530Z,18.70
2018-08-24T19:36:53.178Z,18.70
2018-08-24T19:39:20.823Z,18.70
2018-08-24T19:41:54.125Z,18.70
2018-08-24T19:44:21.905Z,18.70
2018-08-24T19:46:49.556Z,18.70
2018-08-24T19:49:20.310Z,18.60
2018-08-24T19:51:47.938Z,18.50
2018-08-24T19:54:16.261Z,18.50
2018-08-24T19:56:44.028Z,18.50
2018-08-24T19:59:14.039Z,18.50
2018-08-24T20:01:41.695Z,18.50
2018-08-24T20:04:10.331Z,18.40
2018-08-24T20:06:43.652Z,18.30
2018-08-24T20:09:17.533Z,18.30
2018-08-24T20:11:47.497Z,18.30
2018-08-24T20:14:15.338Z,18.20
2018-08-24T20:16:48.767Z,18.20
2018-08-24T20:19:16.490Z,18.10
2018-08-24T20:21:44.280Z,18.00
2018-08-24T20:24:11.997Z,17.90
2018-08-24T20:26:39.920Z,17.90
2018-08-24T20:29:07.846Z,17.90
2018-08-24T20:31:35.515Z,18.00
2018-08-24T20:34:03.219Z,17.90
2018-08-24T20:36:31.059Z,17.90
2018-08-24T20:38:59.704Z,17.80
2018-08-24T20:41:27.385Z,17.80
2018-08-24T20:43:55.053Z,17.80
2018-08-24T20:46:23.106Z,17.80
2018-08-24T20:48:50.755Z,17.70
2018-08-24T20:51:18.473Z,17.70
2018-08-24T20:53:46.444Z,17.70
2018-08-24T20:56:14.410Z,17.70
2018-08-24T20:58:42.089Z,17.60
2018-08-24T21:01:10.721Z,17.50
2018-08-24T21:03:38.374Z,17.60
2018-08-24T21:06:06.097Z,17.60
2018-08-24T21:08:33.751Z,17.60
2018-08-24T21:11:01.414Z,17.50
2018-08-24T21:13:29.087Z,17.40
2018-08-24T21:15:58.678Z,17.30
2018-08-24T21:18:26.321Z,17.30
2018-08-24T21:20:54.145Z,17.30
2018-08-24T21:23:21.811Z,17.40
2018-08-24T21:25:49.489Z,17.40
2018-08-24T21:28:20.209Z,17.30
2018-08-24T21:30:47.870Z,17.30
2018-08-24T21:33:15.586Z,17.30
2018-08-24T21:35:43.241Z,17.20
2018-08-24T21:38:10.927Z,17.20
2018-08-24T21:40:38.604Z,17.20
2018-08-24T21:43:06.265Z,17.20
2018-08-24T21:45:33.929Z,17.20
2018-08-24T21:48:01.643Z,17.10
2018-08-24T21:50:29.342Z,17.10
2018-08-24T21:52:56.995Z,17.00
2018-08-24T21:55:24.674Z,17.00
2018-08-24T21:57:53.220Z,17.00
2018-08-24T22:00:21.477Z,16.90
2018-08-24T22:02:49.294Z,16.90
2018-08-24T22:05:16.961Z,17.00
2018-08-24T22:07:44.726Z,17.00
2018-08-24T22:10:13.467Z,17.00
2018-08-24T22:12:41.113Z,16.90
2018-08-24T22:15:08.781Z,17.00
2018-08-24T22:17:36.485Z,17.10
2018-08-24T22:20:05.620Z,17.00
2018-08-24T22:22:33.497Z,17.00
2018-08-24T22:25:02.886Z,17.00
2018-08-24T22:27:30.553Z,17.00
2018-08-24T22:29:58.299Z,16.80
2018-08-24T22:32:25.946Z,16.80
2018-08-24T22:34:53.609Z,16.80
2018-08-24T22:37:21.286Z,16.80
2018-08-24T22:39:48.938Z,16.80
2018-08-24T22:42:17.609Z,16.90
2018-08-24T22:44:46.696Z,16.80
2018-08-24T22:47:14.362Z,16.80
2018-08-24T22:49:41.997Z,16.80
2018-08-24T22:52:09.661Z,16.80
2018-08-24T22:54:37.430Z,16.70
2018-08-24T22:57:08.209Z,16.80
2018-08-24T22:59:36.483Z,16.80
2018-08-24T23:02:04.294Z,16.80
2018-08-24T23:04:31.998Z,16.80
2018-08-24T23:06:59.639Z,16.70
2018-08-24T23:09:27.717Z,16.60
2018-08-24T23:11:55.385Z,16.60
2018-08-24T23:14:23.027Z,16.60
2018-08-24T23:16:50.793Z,16.60
2018-08-24T23:19:18.462Z,16.70
2018-08-24T23:21:46.321Z,16.70
2018-08-24T23:24:13.949Z,16.60
2018-08-24T23:26:41.621Z,16.70
2018-08-24T23:29:09.313Z,16.70
2018-08-24T23:31:37.598Z,16.70
2018-08-24T23:34:05.352Z,16.60
2018-08-24T23:36:34.518Z,16.60
2018-08-24T23:39:02.350Z,16.60
2018-08-24T23:41:30.113Z,16.60
2018-08-24T23:43:57.813Z,16.50
2018-08-24T23:46:26.392Z,16.50
2018-08-24T23:48:54.042Z,16.40
2018-08-24T23:51:21.797Z,16.50
2018-08-24T23:53:49.637Z,16.50
2018-08-24T23:56:17.287Z,16.40
2018-08-24T23:58:44.955Z,16.40
